createdAt,value
2023-03-17T00:00:25.273Z,38.92
2023-03-17T00:03:01.757Z,38.92
2023-03-17T00:05:42.685Z,38.87
2023-03-17T00:08:34.601Z,38.79
2023-03-17T00:11:06.655Z,38.79
2023-03-17T00:13:37.765Z,38.94
2023-03-17T00:16:16.516Z,38.85
2023-03-17T00:18:51.100Z,39.24
2023-03-17T00:21:35.654Z,38.88
2023-03-17T00:24:13.638Z,38.86
2023-03-17T00:26:47.682Z,38.87
2023-03-17T00:29:24.292Z,38.88
2023-03-17T00:31:53.674Z,39.09
2023-03-17T00:34:21.635Z,38.77
2023-03-17T00:36:55.498Z,38.81
2023-03-17T00:39:25.971Z,38.91
2023-03-17T00:41:53.754Z,38.74
2023-03-17T00:44:28.192Z,38.65
2023-03-17T00:46:57.110Z,38.69
2023-03-17T00:49:29.981Z,38.70
2023-03-17T00:51:58.778Z,38.73
2023-03-17T00:54:26.769Z,38.73
2023-03-17T00:56:57.696Z,38.74
2023-03-17T00:59:39.771Z,38.60
2023-03-17T01:02:16.329Z,38.48
2023-03-17T01:04:59.728Z,38.67
2023-03-17T01:07:58.115Z,38.40
2023-03-17T01:10:33.441Z,38.66
2023-03-17T01:13:07.918Z,38.40
2023-03-17T01:15:35.469Z,38.45
2023-03-17T01:18:03.793Z,38.43
2023-03-17T01:20:37.357Z,38.38
2023-03-17T01:23:08.658Z,38.71
2023-03-17T01:25:42.315Z,38.87
2023-03-17T01:28:23.465Z,39.07
2023-03-17T01:30:54.438Z,38.99
2023-03-17T01:33:30.224Z,39.22
2023-03-17T01:36:04.488Z,39.21
2023-03-17T01:38:37.357Z,39.09
2023-03-17T01:41:11.497Z,39.18
2023-03-17T01:43:43.375Z,39.12
2023-03-17T01:46:28.967Z,39.09
2023-03-17T01:49:14.569Z,39.05
2023-03-17T01:51:59.935Z,39.03
2023-03-17T01:54:50.842Z,39.01
2023-03-17T01:57:44.899Z,39.14
2023-03-17T02:00:24.126Z,39.08
2023-03-17T02:03:01.701Z,38.96
2023-03-17T02:05:33.130Z,39.04
2023-03-17T02:08:02.735Z,38.98
2023-03-17T02:10:34.271Z,38.94
2023-03-17T02:13:09.020Z,38.96
2023-03-17T02:15:52.134Z,38.93
2023-03-17T02:18:46.844Z,39.12
2023-03-17T02:21:47.844Z,39.22
2023-03-17T02:24:52.328Z,39.01
2023-03-17T02:27:41.876Z,39.15
2023-03-17T02:30:48.817Z,39.34
2023-03-17T02:33:28.806Z,39.08
2023-03-17T02:36:05.220Z,39.30
2023-03-17T02:38:35.018Z,39.18
2023-03-17T02:41:09.087Z,39.01
2023-03-17T02:43:46.633Z,39.17
2023-03-17T02:46:23.269Z,39.05
2023-03-17T02:48:58.623Z,39.10
2023-03-17T02:51:34.443Z,39.09
2023-03-17T02:54:03.558Z,39.04
2023-03-17T02:56:34.744Z,38.99
2023-03-17T02:59:08.690Z,39.19
2023-03-17T03:01:40.691Z,39.02
2023-03-17T03:04:12.148Z,39.08
2023-03-17T03:06:42.509Z,39.05
2023-03-17T03:09:15.601Z,39.13
2023-03-17T03:11:52.979Z,38.96
2023-03-17T03:14:26.538Z,39.05
2023-03-17T03:17:01.212Z,39.05
2023-03-17T03:19:48.317Z,38.97
2023-03-17T03:22:21.310Z,39.13
2023-03-17T03:24:51.219Z,39.12
2023-03-17T03:27:21.642Z,38.99
2023-03-17T03:29:51.019Z,39.06
2023-03-17T03:32:24.448Z,38.91
2023-03-17T03:34:52.119Z,38.99
2023-03-17T03:37:25.248Z,39.02
2023-03-17T03:40:00.010Z,39.30
2023-03-17T03:42:30.744Z,38.97
2023-03-17T03:45:01.662Z,38.95
2023-03-17T03:47:34.191Z,39.13
2023-03-17T03:50:10.705Z,39.10
2023-03-17T03:52:43.804Z,38.99
2023-03-17T03:55:11.312Z,39.04
2023-03-17T03:57:41.319Z,38.88
2023-03-17T04:00:13.331Z,38.91
2023-03-17T04:02:48.610Z,38.84
2023-03-17T04:05:22.513Z,38.95
2023-03-17T04:08:00.196Z,38.93
2023-03-17T04:10:28.108Z,38.92
2023-03-17T04:12:59.020Z,38.84
2023-03-17T04:15:27.053Z,38.99
2023-03-17T04:17:58.320Z,38.81
2023-03-17T04:20:26.389Z,38.86
2023-03-17T04:22:54.052Z,38.91
2023-03-17T04:25:23.352Z,38.84
2023-03-17T04:27:51.404Z,38.86
2023-03-17T04:30:19.514Z,38.85
2023-03-17T04:32:49.966Z,38.95
2023-03-17T04:35:24.253Z,38.91
2023-03-17T04:37:57.363Z,38.97
2023-03-17T04:40:31.329Z,38.93
2023-03-17T04:43:03.495Z,38.87
2023-03-17T04:45:32.988Z,38.88
2023-03-17T04:48:09.497Z,38.96
2023-03-17T04:50:37.012Z,38.89
2023-03-17T04:53:04.809Z,38.89
2023-03-17T04:55:36.085Z,38.89
2023-03-17T04:58:21.121Z,38.82
2023-03-17T05:00:59.343Z,38.90
2023-03-17T05:03:32.644Z,38.89
2023-03-17T05:06:05.079Z,38.93
2023-03-17T05:08:36.278Z,38.90
2023-03-17T05:11:06.786Z,38.88
2023-03-17T05:13:37.190Z,38.92
2023-03-17T05:16:08.039Z,38.86
2023-03-17T05:18:41.846Z,38.82
2023-03-17T05:21:08.955Z,38.83
2023-03-17T05:23:42.418Z,38.81
2023-03-17T05:26:17.756Z,38.82
2023-03-17T05:28:51.500Z,38.89
2023-03-17T05:31:42.728Z,38.83
2023-03-17T05:34:12.806Z,39.35
2023-03-17T05:36:44.077Z,39.22
2023-03-17T05:39:18.623Z,39.05
2023-03-17T05:41:49.557Z,38.82
2023-03-17T05:44:18.460Z,38.83
2023-03-17T05:46:46.355Z,38.82
2023-03-17T05:49:19.963Z,38.71
2023-03-17T05:51:53.114Z,38.83
2023-03-17T05:54:23.318Z,39.04
2023-03-17T05:56:59.990Z,39.51
2023-03-17T05:59:33.143Z,39.61
2023-03-17T06:02:00.824Z,39.80
2023-03-17T06:04:35.145Z,39.88
2023-03-17T06:07:10.034Z,39.99
2023-03-17T06:09:44.095Z,39.97
2023-03-17T06:12:14.250Z,39.83
2023-03-17T06:14:45.370Z,39.88
2023-03-17T06:17:15.750Z,39.79
2023-03-17T06:19:50.539Z,40.17
2023-03-17T06:22:20.664Z,40.25
2023-03-17T06:24:51.486Z,40.35
2023-03-17T06:27:23.125Z,40.39
2023-03-17T06:29:56.311Z,40.12
2023-03-17T06:32:26.438Z,39.88
2023-03-17T06:34:55.058Z,39.90
2023-03-17T06:37:25.851Z,39.46
2023-03-17T06:39:56.202Z,39.29
2023-03-17T06:42:26.308Z,39.22
2023-03-17T06:44:59.845Z,39.38
2023-03-17T06:47:29.823Z,39.38
2023-03-17T06:49:59.940Z,39.36
2023-03-17T06:52:33.439Z,39.46
2023-03-17T06:55:06.079Z,39.24
2023-03-17T06:57:36.181Z,39.32
2023-03-17T07:00:12.233Z,39.30
2023-03-17T07:02:46.197Z,39.26
2023-03-17T07:05:20.099Z,39.49
2023-03-17T07:07:56.141Z,39.50
2023-03-17T07:10:26.265Z,39.80
2023-03-17T07:12:54.659Z,39.89
2023-03-17T07:15:30.927Z,39.98
2023-03-17T07:17:59.915Z,39.93
2023-03-17T07:20:30.402Z,39.97
2023-03-17T07:22:58.932Z,40.33
2023-03-17T07:25:32.083Z,40.44
2023-03-17T07:28:02.320Z,40.49
2023-03-17T07:30:36.267Z,40.75
2023-03-17T07:33:10.380Z,40.92
2023-03-17T07:35:44.990Z,40.90
2023-03-17T07:38:14.675Z,40.83
2023-03-17T07:40:47.072Z,40.82
2023-03-17T07:43:20.035Z,40.79
2023-03-17T07:45:49.023Z,40.88
2023-03-17T07:48:20.071Z,40.88
2023-03-17T07:50:53.896Z,40.85
2023-03-17T07:53:27.376Z,40.67
2023-03-17T07:56:00.034Z,40.88
2023-03-17T07:58:30.347Z,41.10
2023-03-17T08:01:03.460Z,41.07
2023-03-17T08:03:40.619Z,41.20
2023-03-17T08:06:17.972Z,41.62
2023-03-17T08:08:48.842Z,41.10
2023-03-17T08:11:16.954Z,40.61
2023-03-17T08:13:51.017Z,40.72
2023-03-17T08:16:34.966Z,40.97
2023-03-17T08:19:03.256Z,41.33
2023-03-17T08:21:32.060Z,41.39
2023-03-17T08:23:59.088Z,41.50
2023-03-17T08:26:33.864Z,41.55
2023-03-17T08:29:12.399Z,41.57
2023-03-17T08:31:47.669Z,41.41
2023-03-17T08:34:18.568Z,41.40
2023-03-17T08:36:54.888Z,41.52
2023-03-17T08:39:29.618Z,41.59
2023-03-17T08:41:57.163Z,41.64
2023-03-17T08:44:26.952Z,41.85
2023-03-17T08:46:57.549Z,41.95
2023-03-17T08:49:31.193Z,41.34
2023-03-17T08:52:07.091Z,41.26
2023-03-17T08:54:42.796Z,41.19
2023-03-17T08:57:15.621Z,41.65
2023-03-17T08:59:45.687Z,41.76
2023-03-17T09:02:16.618Z,41.73
2023-03-17T09:04:49.771Z,41.67
2023-03-17T09:07:25.617Z,41.64
2023-03-17T09:09:55.282Z,41.57
2023-03-17T09:12:35.860Z,41.47
2023-03-17T09:15:06.731Z,41.36
2023-03-17T09:17:45.919Z,41.22
2023-03-17T09:20:16.839Z,41.22
2023-03-17T09:22:50.234Z,41.26
2023-03-17T09:25:18.274Z,41.18
2023-03-17T09:27:53.844Z,41.07
2023-03-17T09:30:24.838Z,41.10
2023-03-17T09:32:52.553Z,41.04
2023-03-17T09:35:28.187Z,41.05
2023-03-17T09:38:04.324Z,41.02
2023-03-17T09:40:50.164Z,41.02
2023-03-17T09:43:33.887Z,41.11
2023-03-17T09:46:39.543Z,41.13
2023-03-17T09:49:37.281Z,41.08
2023-03-17T09:52:17.187Z,41.01
2023-03-17T09:54:51.406Z,40.95
2023-03-17T09:57:42.985Z,40.90
2023-03-17T10:00:19.558Z,40.82
2023-03-17T10:02:47.101Z,40.98
2023-03-17T10:05:25.402Z,41.02
2023-03-17T10:08:29.004Z,41.13
2023-03-17T10:11:17.359Z,41.05
2023-03-17T10:14:05.614Z,41.04
2023-03-17T10:16:51.124Z,41.11
2023-03-17T10:19:35.377Z,41.08
2023-03-17T10:22:11.279Z,41.10
2023-03-17T10:24:45.748Z,41.03
2023-03-17T10:27:19.331Z,41.06
2023-03-17T10:29:52.735Z,41.11
2023-03-17T10:32:23.772Z,41.09
2023-03-17T10:34:51.925Z,41.15
2023-03-17T10:37:24.965Z,40.80
2023-03-17T10:39:54.142Z,40.88
2023-03-17T10:42:25.364Z,40.99
2023-03-17T10:45:09.302Z,40.93
2023-03-17T10:47:49.514Z,41.01
2023-03-17T10:50:22.511Z,41.16
2023-03-17T10:53:05.592Z,41.57
2023-03-17T10:55:50.150Z,41.85
2023-03-17T10:58:32.614Z,42.04
2023-03-17T11:01:11.646Z,42.02
2023-03-17T11:03:48.551Z,42.09
2023-03-17T11:06:18.754Z,42.09
2023-03-17T11:08:54.683Z,42.09
2023-03-17T11:11:28.077Z,41.88
2023-03-17T11:14:19.290Z,41.56
2023-03-17T11:16:57.263Z,41.31
2023-03-17T11:19:53.597Z,41.03
2023-03-17T11:22:37.769Z,41.20
2023-03-17T11:25:20.471Z,41.01
2023-03-17T11:28:09.666Z,40.89
2023-03-17T11:30:46.320Z,40.88
2023-03-17T11:33:35.875Z,40.81
2023-03-17T11:36:24.015Z,40.94
2023-03-17T11:39:17.036Z,41.14
2023-03-17T11:41:53.831Z,41.27
2023-03-17T11:44:45.144Z,41.24
2023-03-17T11:47:23.930Z,41.11
2023-03-17T11:50:18.584Z,41.33
2023-03-17T11:53:15.998Z,41.28
2023-03-17T11:55:57.432Z,41.71
2023-03-17T11:58:30.275Z,41.56
2023-03-17T12:01:00.782Z,41.31
2023-03-17T12:04:06.231Z,41.20
2023-03-17T12:06:45.204Z,41.27
2023-03-17T12:09:36.481Z,40.83
2023-03-17T12:12:16.261Z,39.96
2023-03-17T12:14:53.321Z,40.54
2023-03-17T12:18:09.886Z,40.74
2023-03-17T12:20:59.480Z,40.62
2023-03-17T12:23:39.406Z,40.73
2023-03-17T12:26:16.317Z,40.82
2023-03-17T12:29:09.736Z,40.79
2023-03-17T12:31:42.412Z,40.82
2023-03-17T12:34:17.737Z,40.87
2023-03-17T12:36:45.481Z,41.14
2023-03-17T12:39:50.696Z,41.23
2023-03-17T12:42:57.382Z,41.21
2023-03-17T12:45:49.164Z,41.74
2023-03-17T12:48:40.240Z,41.69
2023-03-17T12:51:38.619Z,41.63
2023-03-17T12:54:36.014Z,41.93
2023-03-17T12:57:18.156Z,41.48
2023-03-17T13:00:07.431Z,41.57
2023-03-17T13:02:39.956Z,41.64
2023-03-17T13:05:15.515Z,41.56
2023-03-17T13:07:52.812Z,41.80
2023-03-17T13:10:38.836Z,41.84
2023-03-17T13:13:20.048Z,41.91
2023-03-17T13:15:58.438Z,41.98
2023-03-17T13:18:46.437Z,41.92
2023-03-17T13:21:19.664Z,41.84
2023-03-17T13:24:18.230Z,41.76
2023-03-17T13:26:56.581Z,41.61
2023-03-17T13:29:40.054Z,41.73
2023-03-17T13:32:16.410Z,41.78
2023-03-17T13:34:55.023Z,41.86
2023-03-17T13:37:34.184Z,41.94
2023-03-17T13:40:32.956Z,41.94
2023-03-17T13:43:18.258Z,41.92
2023-03-17T13:45:50.548Z,41.93
2023-03-17T13:48:30.682Z,41.89
2023-03-17T13:51:26.394Z,41.90
2023-03-17T13:54:13.190Z,41.99
2023-03-17T13:56:43.761Z,41.80
2023-03-17T13:59:17.086Z,41.68
2023-03-17T14:02:26.004Z,41.41
2023-03-17T14:05:20.950Z,37.66
2023-03-17T14:08:16.208Z,35.39
2023-03-17T14:11:02.805Z,33.07
2023-03-17T14:13:41.540Z,30.50
2023-03-17T14:16:26.960Z,29.96
2023-03-17T14:19:12.339Z,31.08
2023-03-17T14:21:45.347Z,30.45
2023-03-17T14:24:23.464Z,29.72
2023-03-17T14:26:56.207Z,29.55
2023-03-17T14:29:34.062Z,32.27
2023-03-17T14:32:24.325Z,30.84
2023-03-17T14:35:01.289Z,31.40
2023-03-17T14:37:29.168Z,31.74
2023-03-17T14:39:59.376Z,32.33
2023-03-17T14:42:31.757Z,32.46
2023-03-17T14:45:32.026Z,32.46
2023-03-17T14:48:04.715Z,33.18
2023-03-17T14:50:39.479Z,35.74
2023-03-17T14:53:10.915Z,37.66
2023-03-17T14:55:53.573Z,38.05
2023-03-17T14:58:32.971Z,38.42
2023-03-17T15:01:13.107Z,38.96
2023-03-17T15:04:09.746Z,39.00
2023-03-17T15:06:59.482Z,39.15
2023-03-17T15:09:42.554Z,39.27
2023-03-17T15:12:26.929Z,39.39
2023-03-17T15:15:06.065Z,39.23
2023-03-17T15:17:46.490Z,39.23
2023-03-17T15:20:23.744Z,39.27
2023-03-17T15:23:07.939Z,39.29
2023-03-17T15:25:51.916Z,39.41
2023-03-17T15:28:34.681Z,39.43
2023-03-17T15:31:15.141Z,39.32
2023-03-17T15:33:48.409Z,39.56
2023-03-17T15:36:31.341Z,38.82
2023-03-17T15:39:05.730Z,37.50
2023-03-17T15:41:39.474Z,32.22
2023-03-17T15:44:09.802Z,33.96
2023-03-17T15:46:42.867Z,35.93
2023-03-17T15:49:13.620Z,36.93
2023-03-17T15:51:41.163Z,37.19
2023-03-17T15:54:14.103Z,37.16
2023-03-17T15:56:44.832Z,37.19
2023-03-17T15:59:15.303Z,37.32
2023-03-17T16:01:48.625Z,37.35
2023-03-17T16:04:26.489Z,37.41
2023-03-17T16:07:02.058Z,37.49
2023-03-17T16:09:32.902Z,37.56
2023-03-17T16:12:05.676Z,37.64
2023-03-17T16:14:36.919Z,36.86
2023-03-17T16:17:15.468Z,37.26
2023-03-17T16:19:46.275Z,37.51
2023-03-17T16:22:47.839Z,37.56
2023-03-17T16:25:24.820Z,37.76
2023-03-17T16:27:56.656Z,37.90
2023-03-17T16:30:34.868Z,37.67
2023-03-17T16:33:19.772Z,38.19
2023-03-17T16:35:51.194Z,38.24
2023-03-17T16:38:23.609Z,38.82
2023-03-17T16:40:53.070Z,39.25
2023-03-17T16:43:30.092Z,39.47
2023-03-17T16:46:10.544Z,39.33
2023-03-17T16:48:41.870Z,39.25
2023-03-17T16:51:14.153Z,39.26
2023-03-17T16:53:41.535Z,39.53
2023-03-17T16:56:23.071Z,39.79
2023-03-17T16:58:53.539Z,40.12
2023-03-17T17:01:26.102Z,40.03
2023-03-17T17:03:57.056Z,39.68
2023-03-17T17:06:29.884Z,39.90
2023-03-17T17:08:57.333Z,39.81
2023-03-17T17:11:30.210Z,39.93
2023-03-17T17:13:58.698Z,40.14
2023-03-17T17:16:34.013Z,39.90
2023-03-17T17:19:01.421Z,39.78
2023-03-17T17:21:28.940Z,39.88
2023-03-17T17:23:58.731Z,39.95
2023-03-17T17:26:32.213Z,39.85
2023-03-17T17:29:04.923Z,40.13
2023-03-17T17:31:35.375Z,40.20
2023-03-17T17:34:05.690Z,39.84
2023-03-17T17:36:36.048Z,39.89
2023-03-17T17:39:09.758Z,40.24
2023-03-17T17:41:43.464Z,40.38
2023-03-17T17:44:13.933Z,40.71
2023-03-17T17:46:47.574Z,40.86
2023-03-17T17:49:17.836Z,40.54
2023-03-17T17:51:50.291Z,40.25
2023-03-17T17:54:17.679Z,40.10
2023-03-17T17:56:52.587Z,40.08
2023-03-17T17:59:25.543Z,39.99
2023-03-17T18:01:53.080Z,39.81
2023-03-17T18:04:20.937Z,39.64
2023-03-17T18:06:52.479Z,39.68
2023-03-17T18:09:32.512Z,39.80
2023-03-17T18:12:00.487Z,39.53
2023-03-17T18:14:27.941Z,39.47
2023-03-17T18:17:06.264Z,39.41
2023-03-17T18:19:35.905Z,39.90
2023-03-17T18:24:39.719Z,40.42
2023-03-17T18:27:09.704Z,40.70
2023-03-17T18:29:42.929Z,40.59
2023-03-17T18:32:13.966Z,40.58
2023-03-17T18:34:50.061Z,40.38
2023-03-17T18:37:19.147Z,40.31
2023-03-17T18:40:12.520Z,40.24
2023-03-17T18:42:42.437Z,40.44
2023-03-17T18:45:14.569Z,40.24
2023-03-17T18:47:48.229Z,40.33
2023-03-17T18:50:21.623Z,40.44
2023-03-17T18:52:49.266Z,40.37
2023-03-17T18:55:17.411Z,40.47
2023-03-17T18:57:48.744Z,40.61
2023-03-17T19:00:19.631Z,40.80
2023-03-17T19:02:50.904Z,40.90
2023-03-17T19:05:27.966Z,41.20
2023-03-17T19:07:58.617Z,41.23
2023-03-17T19:10:31.878Z,41.28
2023-03-17T19:13:06.052Z,41.10
2023-03-17T19:15:40.506Z,41.14
2023-03-17T19:18:09.193Z,41.46
2023-03-17T19:20:39.229Z,41.79
2023-03-17T19:23:09.277Z,41.26
2023-03-17T19:25:40.825Z,41.32
2023-03-17T19:28:08.155Z,41.57
2023-03-17T19:30:37.609Z,41.58
2023-03-17T19:33:10.061Z,41.52
2023-03-17T19:35:51.645Z,41.82
2023-03-17T19:38:19.318Z,41.52
2023-03-17T19:40:52.771Z,41.72
2023-03-17T19:43:39.544Z,41.67
2023-03-17T19:46:19.980Z,41.80
2023-03-17T19:48:59.456Z,41.83
2023-03-17T19:51:29.736Z,41.85
2023-03-17T19:53:57.928Z,41.98
2023-03-17T19:56:25.442Z,42.20
2023-03-17T19:58:55.638Z,42.15
2023-03-17T20:01:28.316Z,42.01
2023-03-17T20:04:01.966Z,41.73
2023-03-17T20:06:32.097Z,41.87
2023-03-17T20:08:59.486Z,41.79
2023-03-17T20:11:33.339Z,41.70
2023-03-17T20:14:04.128Z,41.66
2023-03-17T20:16:41.562Z,41.75
2023-03-17T20:19:08.709Z,41.67
2023-03-17T20:21:38.956Z,41.52
2023-03-17T20:24:12.573Z,41.02
2023-03-17T20:26:49.681Z,39.95
2023-03-17T20:29:19.180Z,39.92
2023-03-17T20:31:49.179Z,40.49
2023-03-17T20:34:17.887Z,40.71
2023-03-17T20:36:44.927Z,41.06
2023-03-17T20:39:18.185Z,41.04
2023-03-17T20:41:54.461Z,40.61
2023-03-17T20:44:25.321Z,41.08
2023-03-17T20:46:55.013Z,41.11
2023-03-17T20:49:22.177Z,41.23
2023-03-17T20:51:49.700Z,41.25
2023-03-17T20:54:22.234Z,41.28
2023-03-17T20:56:58.461Z,41.42
2023-03-17T20:59:35.093Z,41.46
2023-03-17T21:02:02.400Z,41.52
2023-03-17T21:04:31.963Z,41.72
2023-03-17T21:07:02.754Z,41.66
2023-03-17T21:09:32.532Z,41.64
2023-03-17T21:12:02.751Z,41.65
2023-03-17T21:14:29.946Z,41.71
2023-03-17T21:17:02.299Z,41.66
2023-03-17T21:19:31.920Z,41.74
2023-03-17T21:22:02.185Z,41.65
2023-03-17T21:24:36.010Z,41.65
2023-03-17T21:27:08.630Z,41.75
2023-03-17T21:29:45.095Z,41.72
2023-03-17T21:32:20.875Z,41.70
2023-03-17T21:34:51.456Z,41.67
2023-03-17T21:37:25.008Z,41.81
2023-03-17T21:39:57.439Z,41.70
2023-03-17T21:42:34.537Z,41.75
2023-03-17T21:45:05.411Z,41.71
2023-03-17T21:47:40.129Z,41.66
2023-03-17T21:50:17.775Z,41.65
2023-03-17T21:52:49.763Z,41.73
2023-03-17T21:55:23.340Z,41.79
2023-03-17T21:57:53.916Z,41.66
2023-03-17T22:00:21.150Z,41.72
2023-03-17T22:02:52.694Z,41.60
2023-03-17T22:05:24.062Z,41.69
2023-03-17T22:07:50.844Z,41.59
2023-03-17T22:10:18.013Z,41.61
2023-03-17T22:12:49.268Z,41.68
2023-03-17T22:15:17.346Z,41.73
2023-03-17T22:17:55.635Z,41.69
2023-03-17T22:20:25.467Z,41.77
2023-03-17T22:23:01.620Z,41.73
2023-03-17T22:25:40.447Z,41.72
2023-03-17T22:28:10.446Z,41.68
2023-03-17T22:30:44.315Z,41.68
2023-03-17T22:33:16.004Z,41.63
2023-03-17T22:35:43.640Z,41.61
2023-03-17T22:38:13.927Z,41.82
2023-03-17T22:40:45.052Z,41.55
2023-03-17T22:43:15.756Z,41.70
2023-03-17T22:45:46.941Z,41.51
2023-03-17T22:48:17.802Z,41.48
2023-03-17T22:50:51.492Z,41.50
2023-03-17T22:53:22.837Z,41.52
2023-03-17T22:56:00.473Z,41.54
2023-03-17T22:58:31.698Z,41.48
2023-03-17T23:01:08.728Z,41.57
2023-03-17T23:03:43.122Z,41.62
2023-03-17T23:06:18.068Z,41.54
2023-03-17T23:08:47.654Z,41.50
2023-03-17T23:11:25.933Z,41.53
2023-03-17T23:13:57.003Z,41.48
2023-03-17T23:16:25.206Z,41.64
2023-03-17T23:18:59.785Z,41.48
2023-03-17T23:21:33.156Z,41.59
2023-03-17T23:24:10.071Z,41.60
2023-03-17T23:26:43.050Z,41.66
2023-03-17T23:29:16.559Z,41.62
2023-03-17T23:31:47.034Z,41.63
2023-03-17T23:34:16.221Z,41.67
2023-03-17T23:36:46.356Z,41.57
2023-03-17T23:39:13.536Z,41.43
2023-03-17T23:41:40.699Z,41.36
2023-03-17T23:44:10.447Z,41.30
2023-03-17T23:46:43.666Z,41.40
2023-03-17T23:49:13.805Z,41.18
2023-03-17T23:51:43.526Z,41.17
2023-03-17T23:54:14.004Z,41.15
2023-03-17T23:56:41.269Z,41.08
2023-03-17T23:59:13.772Z,41.12
